sensor_id;sensor_type;location;lat;lon;timestamp;P1;durP1;ratioP1;P2;durP2;ratioP2
59974;SDS011;62136;-35.664;-63.766;2022-10-31T00:01:17;11.30;;;1.60;;
59974;SDS011;62136;-35.664;-63.766;2022-10-31T00:03:44;4.47;;;1.00;;
59974;SDS011;62136;-35.664;-63.766;2022-10-31T00:06:13;7.10;;;1.10;;
59974;SDS011;62136;-35.664;-63.766;2022-10-31T00:08:44;5.97;;;1.05;;
59974;SDS011;62136;-35.664;-63.766;2022-10-31T00:11:12;4.28;;;1.00;;
59974;SDS011;62136;-35.664;-63.766;2022-10-31T00:13:39;5.90;;;1.13;;
59974;SDS011;62136;-35.664;-63.766;2022-10-31T00:16:12;7.75;;;1.20;;
59974;SDS011;62136;-35.664;-63.766;2022-10-31T00:18:43;6.07;;;1.30;;
59974;SDS011;62136;-35.664;-63.766;2022-10-31T00:21:14;5.72;;;1.35;;
59974;SDS011;62136;-35.664;-63.766;2022-10-31T00:23:41;4.15;;;1.13;;
59974;SDS011;62136;-35.664;-63.766;2022-10-31T00:26:08;3.92;;;0.90;;
59974;SDS011;62136;-35.664;-63.766;2022-10-31T00:28:35;7.20;;;1.55;;
59974;SDS011;62136;-35.664;-63.766;2022-10-31T00:31:03;3.38;;;1.23;;
59974;SDS011;62136;-35.664;-63.766;2022-10-31T00:33:37;4.22;;;1.15;;
59974;SDS011;62136;-35.664;-63.766;2022-10-31T00:36:05;5.07;;;1.58;;
59974;SDS011;62136;-35.664;-63.766;2022-10-31T00:38:35;4.65;;;1.30;;
59974;SDS011;62136;-35.664;-63.766;2022-10-31T00:41:02;6.40;;;1.45;;
59974;SDS011;62136;-35.664;-63.766;2022-10-31T00:43:29;6.03;;;1.05;;
59974;SDS011;62136;-35.664;-63.766;2022-10-31T00:45:56;4.10;;;0.80;;
59974;SDS011;62136;-35.664;-63.766;2022-10-31T00:48:23;4.53;;;1.00;;
59974;SDS011;62136;-35.664;-63.766;2022-10-31T00:50:50;5.07;;;1.00;;
59974;SDS011;62136;-35.664;-63.766;2022-10-31T00:53:17;3.85;;;0.90;;
59974;SDS011;62136;-35.664;-63.766;2022-10-31T00:55:44;4.55;;;1.10;;
59974;SDS011;62136;-35.664;-63.766;2022-10-31T00:58:11;3.70;;;1.02;;
59974;SDS011;62136;-35.664;-63.766;2022-10-31T01:00:41;5.80;;;0.90;;
59974;SDS011;62136;-35.664;-63.766;2022-10-31T01:03:08;5.05;;;1.45;;
59974;SDS011;62136;-35.664;-63.766;2022-10-31T01:05:36;5.03;;;1.05;;
59974;SDS011;62136;-35.664;-63.766;2022-10-31T01:08:03;6.63;;;0.98;;
59974;SDS011;62136;-35.664;-63.766;2022-10-31T01:10:30;3.97;;;0.90;;
59974;SDS011;62136;-35.664;-63.766;2022-10-31T01:12:57;2.05;;;0.80;;
59974;SDS011;62136;-35.664;-63.766;2022-10-31T01:15:24;3.90;;;0.93;;
59974;SDS011;62136;-35.664;-63.766;2022-10-31T01:17:51;2.90;;;1.15;;
59974;SDS011;62136;-35.664;-63.766;2022-10-31T01:20:18;6.47;;;0.82;;
59974;SDS011;62136;-35.664;-63.766;2022-10-31T01:22:45;2.83;;;1.05;;
59974;SDS011;62136;-35.664;-63.766;2022-10-31T01:25:12;3.92;;;0.90;;
59974;SDS011;62136;-35.664;-63.766;2022-10-31T01:27:39;3.58;;;0.88;;
59974;SDS011;62136;-35.664;-63.766;2022-10-31T01:30:06;3.08;;;1.35;;
59974;SDS011;62136;-35.664;-63.766;2022-10-31T01:32:33;6.07;;;1.02;;
59974;SDS011;62136;-35.664;-63.766;2022-10-31T01:35:03;3.13;;;0.85;;
59974;SDS011;62136;-35.664;-63.766;2022-10-31T01:37:30;2.60;;;0.80;;
59974;SDS011;62136;-35.664;-63.766;2022-10-31T01:39:57;2.88;;;0.70;;
59974;SDS011;62136;-35.664;-63.766;2022-10-31T01:42:27;2.63;;;0.60;;
59974;SDS011;62136;-35.664;-63.766;2022-10-31T01:44:56;1.65;;;0.93;;
59974;SDS011;62136;-35.664;-63.766;2022-10-31T01:47:30;4.43;;;0.93;;
59974;SDS011;62136;-35.664;-63.766;2022-10-31T01:50:14;3.35;;;0.90;;
59974;SDS011;62136;-35.664;-63.766;2022-10-31T01:53:05;3.67;;;0.93;;
59974;SDS011;62136;-35.664;-63.766;2022-10-31T01:55:38;7.15;;;1.13;;
59974;SDS011;62136;-35.664;-63.766;2022-10-31T01:58:09;4.30;;;0.80;;
59974;SDS011;62136;-35.664;-63.766;2022-10-31T02:00:39;2.30;;;0.80;;
59974;SDS011;62136;-35.664;-63.766;2022-10-31T02:03:09;4.63;;;1.00;;
59974;SDS011;62136;-35.664;-63.766;2022-10-31T02:05:37;2.55;;;0.93;;
59974;SDS011;62136;-35.664;-63.766;2022-10-31T02:08:18;4.05;;;1.08;;
59974;SDS011;62136;-35.664;-63.766;2022-10-31T02:10:55;4.28;;;1.02;;
59974;SDS011;62136;-35.664;-63.766;2022-10-31T02:13:23;5.68;;;0.93;;
59974;SDS011;62136;-35.664;-63.766;2022-10-31T02:15:55;4.13;;;0.95;;
59974;SDS011;62136;-35.664;-63.766;2022-10-31T02:18:24;3.10;;;0.80;;
59974;SDS011;62136;-35.664;-63.766;2022-10-31T02:26:12;4.95;;;0.82;;
59974;SDS011;62136;-35.664;-63.766;2022-10-31T02:33:00;2.03;;;0.75;;
59974;SDS011;62136;-35.664;-63.766;2022-10-31T02:37:59;2.45;;;0.98;;
59974;SDS011;62136;-35.664;-63.766;2022-10-31T02:43:02;2.78;;;0.57;;
59974;SDS011;62136;-35.664;-63.766;2022-10-31T02:48:22;2.67;;;0.80;;
59974;SDS011;62136;-35.664;-63.766;2022-10-31T02:51:01;2.45;;;0.70;;
59974;SDS011;62136;-35.664;-63.766;2022-10-31T02:53:33;2.33;;;0.50;;
59974;SDS011;62136;-35.664;-63.766;2022-10-31T02:56:11;2.55;;;0.90;;
59974;SDS011;62136;-35.664;-63.766;2022-10-31T03:12:04;1.77;;;0.70;;
59974;SDS011;62136;-35.664;-63.766;2022-10-31T03:17:09;3.30;;;0.90;;
59974;SDS011;62136;-35.664;-63.766;2022-10-31T03:19:48;2.83;;;0.65;;
59974;SDS011;62136;-35.664;-63.766;2022-10-31T03:22:22;1.98;;;0.75;;
59974;SDS011;62136;-35.664;-63.766;2022-10-31T03:24:52;3.00;;;0.73;;
59974;SDS011;62136;-35.664;-63.766;2022-10-31T03:27:24;4.50;;;0.95;;
59974;SDS011;62136;-35.664;-63.766;2022-10-31T03:29:55;2.17;;;0.77;;
59974;SDS011;62136;-35.664;-63.766;2022-10-31T03:32:29;1.85;;;0.65;;
59974;SDS011;62136;-35.664;-63.766;2022-10-31T03:35:04;2.65;;;0.82;;
59974;SDS011;62136;-35.664;-63.766;2022-10-31T03:37:34;1.85;;;0.75;;
59974;SDS011;62136;-35.664;-63.766;2022-10-31T03:40:03;2.58;;;0.80;;
59974;SDS011;62136;-35.664;-63.766;2022-10-31T03:42:33;2.30;;;0.95;;
59974;SDS011;62136;-35.664;-63.766;2022-10-31T03:45:10;2.38;;;0.80;;
59974;SDS011;62136;-35.664;-63.766;2022-10-31T03:47:44;2.08;;;0.70;;
59974;SDS011;62136;-35.664;-63.766;2022-10-31T03:50:12;1.77;;;0.60;;
59974;SDS011;62136;-35.664;-63.766;2022-10-31T03:58:06;1.85;;;0.85;;
59974;SDS011;62136;-35.664;-63.766;2022-10-31T04:00:42;2.53;;;0.70;;
59974;SDS011;62136;-35.664;-63.766;2022-10-31T04:03:14;3.20;;;0.73;;
59974;SDS011;62136;-35.664;-63.766;2022-10-31T04:05:51;2.45;;;0.75;;
59974;SDS011;62136;-35.664;-63.766;2022-10-31T04:08:22;2.95;;;0.68;;
59974;SDS011;62136;-35.664;-63.766;2022-10-31T04:10:54;2.88;;;0.73;;
59974;SDS011;62136;-35.664;-63.766;2022-10-31T04:13:24;2.33;;;0.60;;
59974;SDS011;62136;-35.664;-63.766;2022-10-31T04:15:57;0.88;;;0.50;;
59974;SDS011;62136;-35.664;-63.766;2022-10-31T04:18:24;2.58;;;0.80;;
59974;SDS011;62136;-35.664;-63.766;2022-10-31T04:21:02;1.80;;;0.90;;
59974;SDS011;62136;-35.664;-63.766;2022-10-31T04:23:31;2.30;;;0.82;;
59974;SDS011;62136;-35.664;-63.766;2022-10-31T04:25:58;1.25;;;0.60;;
59974;SDS011;62136;-35.664;-63.766;2022-10-31T04:28:26;1.67;;;0.57;;
59974;SDS011;62136;-35.664;-63.766;2022-10-31T04:30:53;1.98;;;0.60;;
59974;SDS011;62136;-35.664;-63.766;2022-10-31T04:33:20;0.93;;;0.52;;
59974;SDS011;62136;-35.664;-63.766;2022-10-31T04:35:47;2.72;;;0.60;;
59974;SDS011;62136;-35.664;-63.766;2022-10-31T04:38:14;2.42;;;0.65;;
59974;SDS011;62136;-35.664;-63.766;2022-10-31T04:40:41;2.17;;;0.50;;
59974;SDS011;62136;-35.664;-63.766;2022-10-31T04:43:08;0.98;;;0.63;;
59974;SDS011;62136;-35.664;-63.766;2022-10-31T04:45:36;1.33;;;0.80;;
59974;SDS011;62136;-35.664;-63.766;2022-10-31T04:48:04;2.38;;;0.65;;
59974;SDS011;62136;-35.664;-63.766;2022-10-31T04:50:31;1.33;;;0.50;;
59974;SDS011;62136;-35.664;-63.766;2022-10-31T04:52:58;3.13;;;0.70;;
59974;SDS011;62136;-35.664;-63.766;2022-10-31T04:55:25;2.33;;;0.50;;
59974;SDS011;62136;-35.664;-63.766;2022-10-31T04:57:52;1.50;;;0.70;;
59974;SDS011;62136;-35.664;-63.766;2022-10-31T05:00:19;2.55;;;0.60;;
59974;SDS011;62136;-35.664;-63.766;2022-10-31T05:02:51;2.17;;;0.73;;
59974;SDS011;62136;-35.664;-63.766;2022-10-31T05:05:21;2.75;;;0.85;;
59974;SDS011;62136;-35.664;-63.766;2022-10-31T05:07:50;0.88;;;0.50;;
59974;SDS011;62136;-35.664;-63.766;2022-10-31T05:10:19;3.20;;;0.60;;
59974;SDS011;62136;-35.664;-63.766;2022-10-31T05:12:48;1.65;;;0.60;;
59974;SDS011;62136;-35.664;-63.766;2022-10-31T05:15:16;0.95;;;0.47;;
59974;SDS011;62136;-35.664;-63.766;2022-10-31T05:17:45;1.15;;;0.50;;
59974;SDS011;62136;-35.664;-63.766;2022-10-31T05:20:13;1.15;;;0.50;;
59974;SDS011;62136;-35.664;-63.766;2022-10-31T05:22:46;2.20;;;0.43;;
59974;SDS011;62136;-35.664;-63.766;2022-10-31T05:25:15;1.65;;;1.00;;
59974;SDS011;62136;-35.664;-63.766;2022-10-31T05:27:47;1.45;;;0.60;;
59974;SDS011;62136;-35.664;-63.766;2022-10-31T05:30:16;3.60;;;0.60;;
59974;SDS011;62136;-35.664;-63.766;2022-10-31T05:32:46;1.83;;;0.70;;
59974;SDS011;62136;-35.664;-63.766;2022-10-31T05:35:16;1.67;;;0.52;;
59974;SDS011;62136;-35.664;-63.766;2022-10-31T05:37:47;1.92;;;0.57;;
59974;SDS011;62136;-35.664;-63.766;2022-10-31T05:40:15;2.20;;;0.82;;
59974;SDS011;62136;-35.664;-63.766;2022-10-31T05:42:43;1.70;;;0.43;;
59974;SDS011;62136;-35.664;-63.766;2022-10-31T05:45:14;1.58;;;0.63;;
59974;SDS011;62136;-35.664;-63.766;2022-10-31T05:48:04;1.42;;;0.60;;
59974;SDS011;62136;-35.664;-63.766;2022-10-31T05:50:30;1.50;;;0.57;;
59974;SDS011;62136;-35.664;-63.766;2022-10-31T05:52:59;2.30;;;0.90;;
59974;SDS011;62136;-35.664;-63.766;2022-10-31T05:55:30;1.45;;;0.65;;
59974;SDS011;62136;-35.664;-63.766;2022-10-31T05:57:58;1.85;;;0.55;;
59974;SDS011;62136;-35.664;-63.766;2022-10-31T06:00:25;4.15;;;0.70;;
59974;SDS011;62136;-35.664;-63.766;2022-10-31T06:02:59;2.50;;;0.80;;
59974;SDS011;62136;-35.664;-63.766;2022-10-31T06:05:28;2.97;;;0.60;;
59974;SDS011;62136;-35.664;-63.766;2022-10-31T06:07:55;3.22;;;0.95;;
59974;SDS011;62136;-35.664;-63.766;2022-10-31T06:10:23;0.95;;;0.47;;
59974;SDS011;62136;-35.664;-63.766;2022-10-31T06:12:51;0.80;;;0.55;;
59974;SDS011;62136;-35.664;-63.766;2022-10-31T06:15:18;2.63;;;0.70;;
59974;SDS011;62136;-35.664;-63.766;2022-10-31T06:17:46;1.00;;;0.40;;
59974;SDS011;62136;-35.664;-63.766;2022-10-31T06:20:22;0.80;;;0.50;;
59974;SDS011;62136;-35.664;-63.766;2022-10-31T06:22:49;1.70;;;0.75;;
59974;SDS011;62136;-35.664;-63.766;2022-10-31T06:25:16;1.55;;;0.70;;
59974;SDS011;62136;-35.664;-63.766;2022-10-31T06:27:43;1.05;;;0.40;;
59974;SDS011;62136;-35.664;-63.766;2022-10-31T06:30:10;2.65;;;0.68;;
59974;SDS011;62136;-35.664;-63.766;2022-10-31T06:32:37;1.92;;;0.50;;
59974;SDS011;62136;-35.664;-63.766;2022-10-31T06:35:04;1.30;;;0.50;;
59974;SDS011;62136;-35.664;-63.766;2022-10-31T06:37:32;3.22;;;0.50;;
59974;SDS011;62136;-35.664;-63.766;2022-10-31T06:39:59;1.25;;;0.73;;
59974;SDS011;62136;-35.664;-63.766;2022-10-31T06:42:26;2.03;;;0.80;;
59974;SDS011;62136;-35.664;-63.766;2022-10-31T06:44:53;1.92;;;0.85;;
59974;SDS011;62136;-35.664;-63.766;2022-10-31T06:47:20;1.48;;;0.60;;
59974;SDS011;62136;-35.664;-63.766;2022-10-31T06:49:47;0.85;;;0.43;;
59974;SDS011;62136;-35.664;-63.766;2022-10-31T06:52:14;0.93;;;0.47;;
59974;SDS011;62136;-35.664;-63.766;2022-10-31T06:54:41;3.05;;;0.65;;
59974;SDS011;62136;-35.664;-63.766;2022-10-31T06:57:08;0.90;;;0.68;;
59974;SDS011;62136;-35.664;-63.766;2022-10-31T06:59:35;2.28;;;0.50;;
59974;SDS011;62136;-35.664;-63.766;2022-10-31T07:02:02;0.98;;;0.38;;
59974;SDS011;62136;-35.664;-63.766;2022-10-31T07:04:29;0.88;;;0.47;;
59974;SDS011;62136;-35.664;-63.766;2022-10-31T07:06:56;1.30;;;0.60;;
59974;SDS011;62136;-35.664;-63.766;2022-10-31T07:09:23;1.27;;;0.80;;
59974;SDS011;62136;-35.664;-63.766;2022-10-31T07:11:51;1.45;;;0.52;;
59974;SDS011;62136;-35.664;-63.766;2022-10-31T07:14:19;3.15;;;0.80;;
59974;SDS011;62136;-35.664;-63.766;2022-10-31T07:16:49;0.82;;;0.55;;
59974;SDS011;62136;-35.664;-63.766;2022-10-31T07:19:17;2.17;;;0.55;;
59974;SDS011;62136;-35.664;-63.766;2022-10-31T07:21:44;0.75;;;0.30;;
59974;SDS011;62136;-35.664;-63.766;2022-10-31T07:24:11;1.85;;;0.50;;
59974;SDS011;62136;-35.664;-63.766;2022-10-31T07:26:38;0.57;;;0.30;;
59974;SDS011;62136;-35.664;-63.766;2022-10-31T07:29:05;0.93;;;0.40;;
59974;SDS011;62136;-35.664;-63.766;2022-10-31T07:31:32;1.33;;;0.80;;
59974;SDS011;62136;-35.664;-63.766;2022-10-31T07:33:59;1.75;;;0.50;;
59974;SDS011;62136;-35.664;-63.766;2022-10-31T07:36:26;1.13;;;0.57;;
59974;SDS011;62136;-35.664;-63.766;2022-10-31T07:38:53;0.90;;;0.52;;
59974;SDS011;62136;-35.664;-63.766;2022-10-31T07:41:20;1.58;;;0.50;;
59974;SDS011;62136;-35.664;-63.766;2022-10-31T07:43:47;1.85;;;0.50;;
59974;SDS011;62136;-35.664;-63.766;2022-10-31T07:46:14;1.08;;;0.43;;
59974;SDS011;62136;-35.664;-63.766;2022-10-31T07:48:41;1.25;;;0.40;;
59974;SDS011;62136;-35.664;-63.766;2022-10-31T07:51:08;0.65;;;0.43;;
59974;SDS011;62136;-35.664;-63.766;2022-10-31T07:53:35;0.70;;;0.70;;
59974;SDS011;62136;-35.664;-63.766;2022-10-31T07:56:02;0.70;;;0.35;;
59974;SDS011;62136;-35.664;-63.766;2022-10-31T07:58:30;2.05;;;0.60;;
59974;SDS011;62136;-35.664;-63.766;2022-10-31T08:00:57;0.95;;;0.45;;
59974;SDS011;62136;-35.664;-63.766;2022-10-31T08:03:24;1.35;;;0.50;;
59974;SDS011;62136;-35.664;-63.766;2022-10-31T08:05:51;0.65;;;0.60;;
59974;SDS011;62136;-35.664;-63.766;2022-10-31T08:08:18;0.70;;;0.50;;
59974;SDS011;62136;-35.664;-63.766;2022-10-31T08:10:45;0.40;;;0.40;;
59974;SDS011;62136;-35.664;-63.766;2022-10-31T08:13:12;1.00;;;0.45;;
59974;SDS011;62136;-35.664;-63.766;2022-10-31T08:15:40;1.00;;;0.47;;
59974;SDS011;62136;-35.664;-63.766;2022-10-31T08:18:11;1.40;;;0.45;;
59974;SDS011;62136;-35.664;-63.766;2022-10-31T08:20:40;1.23;;;0.60;;
59974;SDS011;62136;-35.664;-63.766;2022-10-31T08:23:08;1.50;;;0.60;;
59974;SDS011;62136;-35.664;-63.766;2022-10-31T08:25:36;1.15;;;0.40;;
59974;SDS011;62136;-35.664;-63.766;2022-10-31T08:28:04;1.60;;;0.38;;
59974;SDS011;62136;-35.664;-63.766;2022-10-31T08:30:33;0.90;;;0.50;;
59974;SDS011;62136;-35.664;-63.766;2022-10-31T08:33:02;0.40;;;0.40;;
59974;SDS011;62136;-35.664;-63.766;2022-10-31T08:35:31;2.40;;;0.80;;
59974;SDS011;62136;-35.664;-63.766;2022-10-31T08:37:59;0.90;;;0.60;;
59974;SDS011;62136;-35.664;-63.766;2022-10-31T08:40:27;1.30;;;0.50;;
59974;SDS011;62136;-35.664;-63.766;2022-10-31T08:43:14;0.93;;;0.40;;
59974;SDS011;62136;-35.664;-63.766;2022-10-31T08:45:43;1.42;;;0.50;;
59974;SDS011;62136;-35.664;-63.766;2022-10-31T08:48:13;1.27;;;0.60;;
59974;SDS011;62136;-35.664;-63.766;2022-10-31T08:50:42;0.77;;;0.40;;
59974;SDS011;62136;-35.664;-63.766;2022-10-31T08:53:14;1.13;;;0.47;;
59974;SDS011;62136;-35.664;-63.766;2022-10-31T08:55:44;1.20;;;0.43;;
59974;SDS011;62136;-35.664;-63.766;2022-10-31T08:58:13;0.60;;;0.47;;
59974;SDS011;62136;-35.664;-63.766;2022-10-31T09:00:42;0.30;;;0.20;;
59974;SDS011;62136;-35.664;-63.766;2022-10-31T09:03:16;0.40;;;0.30;;
59974;SDS011;62136;-35.664;-63.766;2022-10-31T09:05:46;0.70;;;0.70;;
59974;SDS011;62136;-35.664;-63.766;2022-10-31T09:08:13;1.60;;;0.40;;
59974;SDS011;62136;-35.664;-63.766;2022-10-31T09:10:41;0.73;;;0.45;;
59974;SDS011;62136;-35.664;-63.766;2022-10-31T09:13:09;1.48;;;0.60;;
59974;SDS011;62136;-35.664;-63.766;2022-10-31T09:15:45;0.93;;;0.30;;
59974;SDS011;62136;-35.664;-63.766;2022-10-31T09:18:15;1.10;;;0.60;;
59974;SDS011;62136;-35.664;-63.766;2022-10-31T09:20:44;1.35;;;0.52;;
59974;SDS011;62136;-35.664;-63.766;2022-10-31T09:23:14;0.90;;;0.40;;
59974;SDS011;62136;-35.664;-63.766;2022-10-31T09:25:43;1.08;;;0.40;;
59974;SDS011;62136;-35.664;-63.766;2022-10-31T09:28:11;1.08;;;0.50;;
59974;SDS011;62136;-35.664;-63.766;2022-10-31T09:30:39;2.28;;;0.80;;
59974;SDS011;62136;-35.664;-63.766;2022-10-31T09:33:09;2.17;;;0.60;;
59974;SDS011;62136;-35.664;-63.766;2022-10-31T09:35:37;1.10;;;0.60;;
59974;SDS011;62136;-35.664;-63.766;2022-10-31T09:38:05;1.13;;;0.70;;
59974;SDS011;62136;-35.664;-63.766;2022-10-31T09:40:43;1.85;;;0.47;;
59974;SDS011;62136;-35.664;-63.766;2022-10-31T09:51:32;1.40;;;0.63;;
59974;SDS011;62136;-35.664;-63.766;2022-10-31T09:54:11;0.35;;;0.32;;
59974;SDS011;62136;-35.664;-63.766;2022-10-31T09:56:46;0.73;;;0.45;;
59974;SDS011;62136;-35.664;-63.766;2022-10-31T09:59:20;0.85;;;0.45;;
59974;SDS011;62136;-35.664;-63.766;2022-10-31T10:02:06;0.85;;;0.40;;
59974;SDS011;62136;-35.664;-63.766;2022-10-31T10:05:05;1.98;;;0.60;;
59974;SDS011;62136;-35.664;-63.766;2022-10-31T10:21:37;1.08;;;0.43;;
59974;SDS011;62136;-35.664;-63.766;2022-10-31T10:24:18;1.42;;;0.80;;
59974;SDS011;62136;-35.664;-63.766;2022-10-31T10:26:52;1.42;;;0.40;;
59974;SDS011;62136;-35.664;-63.766;2022-10-31T10:29:44;0.90;;;0.60;;
59974;SDS011;62136;-35.664;-63.766;2022-10-31T10:32:19;2.28;;;0.43;;
59974;SDS011;62136;-35.664;-63.766;2022-10-31T10:35:07;1.15;;;0.47;;
59974;SDS011;62136;-35.664;-63.766;2022-10-31T10:38:22;1.20;;;0.63;;
59974;SDS011;62136;-35.664;-63.766;2022-10-31T10:41:17;1.65;;;0.40;;
59974;SDS011;62136;-35.664;-63.766;2022-10-31T10:43:49;0.95;;;0.70;;
59974;SDS011;62136;-35.664;-63.766;2022-10-31T10:55:13;1.02;;;0.70;;
59974;SDS011;62136;-35.664;-63.766;2022-10-31T10:57:56;2.22;;;0.73;;
59974;SDS011;62136;-35.664;-63.766;2022-10-31T11:00:32;1.15;;;0.65;;
59974;SDS011;62136;-35.664;-63.766;2022-10-31T11:03:04;2.83;;;0.52;;
59974;SDS011;62136;-35.664;-63.766;2022-10-31T11:05:42;1.83;;;0.68;;
59974;SDS011;62136;-35.664;-63.766;2022-10-31T11:08:25;4.43;;;0.60;;
59974;SDS011;62136;-35.664;-63.766;2022-10-31T11:14:11;2.58;;;1.10;;
59974;SDS011;62136;-35.664;-63.766;2022-10-31T11:16:44;2.05;;;0.90;;
59974;SDS011;62136;-35.664;-63.766;2022-10-31T11:22:08;3.25;;;0.93;;
59974;SDS011;62136;-35.664;-63.766;2022-10-31T11:24:42;3.65;;;0.90;;
59974;SDS011;62136;-35.664;-63.766;2022-10-31T11:27:15;3.67;;;0.90;;
59974;SDS011;62136;-35.664;-63.766;2022-10-31T11:29:48;2.17;;;1.00;;
59974;SDS011;62136;-35.664;-63.766;2022-10-31T11:32:20;2.83;;;0.98;;
59974;SDS011;62136;-35.664;-63.766;2022-10-31T11:34:56;2.10;;;0.70;;
59974;SDS011;62136;-35.664;-63.766;2022-10-31T11:37:27;5.95;;;1.00;;
59974;SDS011;62136;-35.664;-63.766;2022-10-31T11:39:57;2.13;;;0.82;;
59974;SDS011;62136;-35.664;-63.766;2022-10-31T11:42:28;1.63;;;0.90;;
59974;SDS011;62136;-35.664;-63.766;2022-10-31T11:45:07;2.92;;;1.00;;
59974;SDS011;62136;-35.664;-63.766;2022-10-31T11:47:59;2.13;;;1.38;;
59974;SDS011;62136;-35.664;-63.766;2022-10-31T11:50:34;3.15;;;1.00;;
59974;SDS011;62136;-35.664;-63.766;2022-10-31T11:53:18;1.02;;;0.77;;
59974;SDS011;62136;-35.664;-63.766;2022-10-31T11:56:05;4.00;;;1.00;;
59974;SDS011;62136;-35.664;-63.766;2022-10-31T11:58:40;3.95;;;1.25;;
59974;SDS011;62136;-35.664;-63.766;2022-10-31T12:01:20;3.95;;;0.98;;
59974;SDS011;62136;-35.664;-63.766;2022-10-31T12:04:11;5.07;;;1.25;;
59974;SDS011;62136;-35.664;-63.766;2022-10-31T12:06:40;6.68;;;1.60;;
59974;SDS011;62136;-35.664;-63.766;2022-10-31T12:09:27;3.50;;;1.15;;
59974;SDS011;62136;-35.664;-63.766;2022-10-31T12:17:45;7.05;;;1.02;;
59974;SDS011;62136;-35.664;-63.766;2022-10-31T12:29:59;6.70;;;1.90;;
59974;SDS011;62136;-35.664;-63.766;2022-10-31T12:46:23;4.28;;;1.80;;
59974;SDS011;62136;-35.664;-63.766;2022-10-31T12:49:06;7.30;;;1.63;;
59974;SDS011;62136;-35.664;-63.766;2022-10-31T12:57:28;7.55;;;1.98;;
59974;SDS011;62136;-35.664;-63.766;2022-10-31T13:00:07;11.48;;;3.38;;
59974;SDS011;62136;-35.664;-63.766;2022-10-31T13:07:49;11.38;;;3.22;;
59974;SDS011;62136;-35.664;-63.766;2022-10-31T13:10:32;14.60;;;2.38;;
59974;SDS011;62136;-35.664;-63.766;2022-10-31T13:13:04;19.45;;;3.00;;
59974;SDS011;62136;-35.664;-63.766;2022-10-31T13:15:54;14.13;;;3.22;;
59974;SDS011;62136;-35.664;-63.766;2022-10-31T13:18:50;6.85;;;1.92;;
59974;SDS011;62136;-35.664;-63.766;2022-10-31T13:21:32;10.25;;;2.35;;
59974;SDS011;62136;-35.664;-63.766;2022-10-31T13:24:16;9.40;;;2.20;;
59974;SDS011;62136;-35.664;-63.766;2022-10-31T13:27:01;7.00;;;2.25;;
59974;SDS011;62136;-35.664;-63.766;2022-10-31T13:29:39;9.43;;;2.15;;
59974;SDS011;62136;-35.664;-63.766;2022-10-31T13:32:14;7.68;;;1.88;;
59974;SDS011;62136;-35.664;-63.766;2022-10-31T13:34:43;8.43;;;2.25;;
59974;SDS011;62136;-35.664;-63.766;2022-10-31T13:45:18;7.53;;;1.85;;
59974;SDS011;62136;-35.664;-63.766;2022-10-31T13:48:00;11.02;;;1.88;;
59974;SDS011;62136;-35.664;-63.766;2022-10-31T13:51:05;7.35;;;1.75;;
59974;SDS011;62136;-35.664;-63.766;2022-10-31T13:53:36;6.65;;;1.80;;
59974;SDS011;62136;-35.664;-63.766;2022-10-31T13:56:31;6.80;;;1.35;;
59974;SDS011;62136;-35.664;-63.766;2022-10-31T13:59:04;8.07;;;1.70;;
59974;SDS011;62136;-35.664;-63.766;2022-10-31T14:01:53;6.18;;;1.77;;
59974;SDS011;62136;-35.664;-63.766;2022-10-31T14:07:13;6.90;;;1.38;;
59974;SDS011;62136;-35.664;-63.766;2022-10-31T14:17:47;4.80;;;1.17;;
59974;SDS011;62136;-35.664;-63.766;2022-10-31T14:22:48;5.07;;;1.27;;
59974;SDS011;62136;-35.664;-63.766;2022-10-31T14:25:29;6.22;;;1.45;;
59974;SDS011;62136;-35.664;-63.766;2022-10-31T14:30:30;6.20;;;1.23;;
59974;SDS011;62136;-35.664;-63.766;2022-10-31T14:32:58;4.93;;;1.20;;
59974;SDS011;62136;-35.664;-63.766;2022-10-31T14:36:04;5.60;;;1.70;;
59974;SDS011;62136;-35.664;-63.766;2022-10-31T14:44:57;4.82;;;1.30;;
59974;SDS011;62136;-35.664;-63.766;2022-10-31T14:53:21;5.03;;;1.07;;
59974;SDS011;62136;-35.664;-63.766;2022-10-31T14:55:55;4.70;;;1.42;;
59974;SDS011;62136;-35.664;-63.766;2022-10-31T15:00:55;5.07;;;1.25;;
59974;SDS011;62136;-35.664;-63.766;2022-10-31T15:03:24;4.95;;;1.40;;
59974;SDS011;62136;-35.664;-63.766;2022-10-31T15:05:59;6.70;;;1.38;;
59974;SDS011;62136;-35.664;-63.766;2022-10-31T15:11:13;4.63;;;1.70;;
59974;SDS011;62136;-35.664;-63.766;2022-10-31T15:13:43;6.68;;;1.50;;
59974;SDS011;62136;-35.664;-63.766;2022-10-31T15:16:13;8.00;;;1.25;;
59974;SDS011;62136;-35.664;-63.766;2022-10-31T15:19:26;5.40;;;1.60;;
59974;SDS011;62136;-35.664;-63.766;2022-10-31T15:21:42;6.60;;;1.30;;
59974;SDS011;62136;-35.664;-63.766;2022-10-31T15:24:14;9.35;;;1.38;;
59974;SDS011;62136;-35.664;-63.766;2022-10-31T15:26:52;6.03;;;1.15;;
59974;SDS011;62136;-35.664;-63.766;2022-10-31T15:29:22;7.05;;;1.80;;
59974;SDS011;62136;-35.664;-63.766;2022-10-31T15:32:22;7.25;;;1.30;;
59974;SDS011;62136;-35.664;-63.766;2022-10-31T15:34:51;8.77;;;1.38;;
59974;SDS011;62136;-35.664;-63.766;2022-10-31T15:37:23;7.30;;;1.38;;
59974;SDS011;62136;-35.664;-63.766;2022-10-31T15:39:51;6.05;;;1.48;;
59974;SDS011;62136;-35.664;-63.766;2022-10-31T15:44:58;2.90;;;1.15;;
59974;SDS011;62136;-35.664;-63.766;2022-10-31T15:47:29;4.40;;;1.10;;
59974;SDS011;62136;-35.664;-63.766;2022-10-31T15:49:58;4.90;;;1.00;;
59974;SDS011;62136;-35.664;-63.766;2022-10-31T15:52:33;8.10;;;1.75;;
59974;SDS011;62136;-35.664;-63.766;2022-10-31T15:57:45;7.90;;;1.30;;
59974;SDS011;62136;-35.664;-63.766;2022-10-31T16:00:25;7.55;;;1.25;;
59974;SDS011;62136;-35.664;-63.766;2022-10-31T16:11:37;3.75;;;0.98;;
59974;SDS011;62136;-35.664;-63.766;2022-10-31T16:16:40;4.93;;;1.10;;
59974;SDS011;62136;-35.664;-63.766;2022-10-31T16:19:18;5.03;;;1.13;;
59974;SDS011;62136;-35.664;-63.766;2022-10-31T16:21:53;3.55;;;1.05;;
59974;SDS011;62136;-35.664;-63.766;2022-10-31T16:24:31;6.60;;;1.20;;
59974;SDS011;62136;-35.664;-63.766;2022-10-31T16:27:18;4.57;;;0.90;;
59974;SDS011;62136;-35.664;-63.766;2022-10-31T16:29:57;4.38;;;0.90;;
59974;SDS011;62136;-35.664;-63.766;2022-10-31T16:32:52;4.75;;;0.93;;
59974;SDS011;62136;-35.664;-63.766;2022-10-31T16:35:26;2.50;;;0.90;;
59974;SDS011;62136;-35.664;-63.766;2022-10-31T16:38:03;4.32;;;1.10;;
59974;SDS011;62136;-35.664;-63.766;2022-10-31T16:40:31;3.10;;;0.80;;
59974;SDS011;62136;-35.664;-63.766;2022-10-31T16:43:00;7.05;;;1.27;;
59974;SDS011;62136;-35.664;-63.766;2022-10-31T16:45:28;2.70;;;0.88;;
59974;SDS011;62136;-35.664;-63.766;2022-10-31T16:48:04;4.93;;;1.15;;
59974;SDS011;62136;-35.664;-63.766;2022-10-31T16:50:35;3.35;;;0.88;;
59974;SDS011;62136;-35.664;-63.766;2022-10-31T16:53:04;4.43;;;1.27;;
59974;SDS011;62136;-35.664;-63.766;2022-10-31T16:55:32;3.50;;;0.93;;
59974;SDS011;62136;-35.664;-63.766;2022-10-31T16:58:01;3.50;;;0.90;;
59974;SDS011;62136;-35.664;-63.766;2022-10-31T17:00:29;4.15;;;1.00;;
59974;SDS011;62136;-35.664;-63.766;2022-10-31T17:02:56;7.90;;;1.15;;
59974;SDS011;62136;-35.664;-63.766;2022-10-31T17:05:23;3.03;;;0.77;;
59974;SDS011;62136;-35.664;-63.766;2022-10-31T17:07:57;3.97;;;1.15;;
59974;SDS011;62136;-35.664;-63.766;2022-10-31T17:10:25;4.97;;;1.00;;
59974;SDS011;62136;-35.664;-63.766;2022-10-31T17:12:53;3.90;;;1.20;;
59974;SDS011;62136;-35.664;-63.766;2022-10-31T17:15:25;5.30;;;1.70;;
59974;SDS011;62136;-35.664;-63.766;2022-10-31T17:17:54;5.40;;;2.83;;
59974;SDS011;62136;-35.664;-63.766;2022-10-31T17:22:52;13.50;;;7.22;;
59974;SDS011;62136;-35.664;-63.766;2022-10-31T17:25:22;24.88;;;14.20;;
59974;SDS011;62136;-35.664;-63.766;2022-10-31T17:27:51;31.60;;;17.10;;
59974;SDS011;62136;-35.664;-63.766;2022-10-31T17:30:19;48.53;;;27.17;;
59974;SDS011;62136;-35.664;-63.766;2022-10-31T17:32:47;67.28;;;37.22;;